Data for 10/23/2016

Time Sea-Level Adjusted Pressure Absolute Pressure Temperature Relative Humidity Dew Point   
(mb) (inHg) (mb) (inHg) (C) (F) (%) (C) (F)
00:05 1019 30.09 848 25.04 4.5 40.1 71 -0.4 31.3
00:10 1019 30.09 848 25.04 4.3 39.7 71 -0.4 31.2
00:15 1019 30.09 848 25.04 4.1 39.3 72 -0.5 31.2
00:20 1019 30.09 848 25.04 4.1 39.4 71 -0.7 30.7
00:25 1019 30.09 848 25.04 4.4 39.9 69 -0.8 30.5
00:30 1019 30.09 848 25.04 4.7 40.4 68 -0.7 30.8
00:35 1019 30.09 848 25.04 4.7 40.5 68 -0.7 30.8
00:40 1019 30.09 848 25.04 4.8 40.6 67 -0.8 30.5
00:45 1019 30.09 848 25.04 5 41.1 68 -0.4 31.3
00:50 1019 30.09 848 25.04 5 41 64 -1.3 29.7
00:55 1019 30.09 848 25.04 5.3 41.5 63 -1.1 30
01:00 1019 30.09 848 25.04 5.6 42.1 60 -1.5 29.3
01:05 1019 30.09 848 25.04 5.6 42.2 59 -1.8 28.7
01:10 1019 30.09 848 25.04 5.6 42.2 59 -1.8 28.7
01:15 1019 30.09 848 25.04 5.5 41.9 59 -1.9 28.6
01:20 1019 30.09 848 25.04 5.4 41.6 60 -1.7 28.9
01:25 1019 30.09 848 25.04 5.2 41.4 60 -1.9 28.6
01:30 1019 30.09 848 25.04 5.2 41.4 59 -2.1 28.2
01:35 1019 30.09 848 25.04 5.3 41.5 60 -1.9 28.5
01:40 1019 30.09 848 25.04 5.2 41.4 60 -1.9 28.6
01:45 1019 30.09 848 25.04 5.1 41.3 61 -1.8 28.8
01:50 1019 30.09 848 25.04 5.1 41.2 61 -1.7 28.9
01:55 1019 30.09 848 25.04 5 41.1 60 -2 28.4
02:00 1019 30.09 848 25.04 5.1 41.1 63 -1.4 29.4
02:05 1019 30.09 848 25.04 4.7 40.5 64 -1.4 29.5
02:10 1019 30.09 848 25.04 4.5 40.2 65 -1.4 29.5
02:15 1019 30.09 848 25.04 4.4 39.9 66 -1.3 29.6
02:20 1019 30.09 849 25.07 4.3 39.8 65 -1.6 29.2
02:25 1019 30.09 849 25.07 4.6 40.3 63 -1.8 28.8
02:30 1019 30.09 849 25.07 4.8 40.6 61 -2 28.4
02:35 1019 30.09 849 25.07 4.9 40.9 60 -2.2 28
02:40 1019 30.09 849 25.07 5 41 61 -2 28.5
02:45 1019 30.09 849 25.07 4.9 40.8 59 -2.4 27.7
02:50 1020 30.12 849 25.07 5 40.9 63 -1.5 29.2
02:55 1020 30.12 849 25.07 4.7 40.4 64 -1.6 29.1
03:00 1020 30.12 849 25.07 4.6 40.3 62 -2 28.3
03:05 1020 30.12 849 25.07 4.7 40.5 61 -2.1 28.3
03:10 1020 30.12 849 25.07 4.8 40.6 59 -2.5 27.5
03:15 1020 30.12 849 25.07 4.8 40.7 59 -2.5 27.5
03:20 1020 30.12 849 25.07 4.8 40.7 59 -2.4 27.7
03:25 1020 30.12 849 25.07 4.9 40.8 58 -2.7 27.2
03:30 1020 30.12 849 25.07 5 41 59 -2.3 27.8
03:35 1020 30.12 849 25.07 4.9 40.8 57 -2.8 26.9
03:40 1020 30.12 849 25.07 4.9 40.9 58 -2.5 27.4
03:45 1020 30.12 849 25.07 5.1 41.2 58 -2.5 27.5
03:50 1020 30.12 849 25.07 5.1 41.3 58 -2.3 27.8
03:55 1020 30.12 849 25.07 4.8 40.7 64 -1.5 29.4
04:00 1020 30.12 849 25.07 4.6 40.2 65 -1.4 29.4
04:05 1020 30.12 849 25.07 4.6 40.2 64 -1.7 28.9
04:10 1020 30.12 849 25.07 4.3 39.8 68 -1.1 30.1
04:15 1020 30.12 849 25.07 4.1 39.4 68 -1.3 29.6
04:20 1020 30.12 849 25.07 4.2 39.5 63 -2.2 28.1
04:25 1020 30.12 849 25.07 4.4 39.9 64 -1.9 28.5
04:30 1020 30.12 849 25.07 4.4 39.9 63 -1.9 28.5
04:35 1020 30.12 849 25.07 4.4 40 59 -2.9 26.8
04:40 1020 30.12 849 25.07 4.9 40.7 58 -2.7 27.1
04:45 1020 30.12 849 25.07 5.1 41.1 60 -2 28.4
04:50 1020 30.12 849 25.07 4.7 40.5 61 -2.1 28.2
04:55 1020 30.12 849 25.07 4.7 40.5 60 -2.3 27.8
05:00 1020 30.12 849 25.07 4.6 40.3 59 -2.7 27.2
05:05 1020 30.12 849 25.07 4.9 40.7 57 -2.8 26.9
05:10 1020 30.12 849 25.07 4.7 40.4 59 -2.6 27.4
05:15 1020 30.12 849 25.07 4.5 40.2 62 -2.1 28.3
05:20 1020 30.12 849 25.07 4.2 39.6 67 -1.4 29.5
05:25 1020 30.12 849 25.07 3.8 38.9 68 -1.6 29.2
05:30 1020 30.12 849 25.07 3.7 38.7 69 -1.5 29.4
05:35 1020 30.12 850 25.1 3.5 38.4 70 -1.4 29.5
05:40 1020 30.12 850 25.1 3.4 38.1 71 -1.4 29.5
05:45 1020 30.12 850 25.1 3.4 38.1 70 -1.6 29.2
05:50 1020 30.12 850 25.1 3.5 38.3 66 -2.2 28
05:55 1020 30.12 850 25.1 3.9 39 65 -2 28.4
06:00 1020 30.12 850 25.1 4.1 39.3 62 -2.5 27.5
06:05 1020 30.12 850 25.1 4.2 39.5 64 -2 28.5
06:10 1021 30.15 850 25.1 4 39.2 66 -1.7 28.9
06:15 1021 30.15 850 25.1 4.1 39.4 62 -2.5 27.6
06:20 1021 30.15 850 25.1 4.5 40.1 57 -3.2 26.2
06:25 1021 30.15 850 25.1 5.1 41.2 53 -3.7 25.4
06:30 1020 30.12 850 25.1 5.7 42.2 52 -3.4 25.9
06:35 1021 30.15 850 25.1 5.9 42.6 52 -3.3 26
06:40 1020 30.12 850 25.1 5.9 42.7 52 -3.1 26.4
06:45 1020 30.12 850 25.1 5.9 42.6 53 -2.9 26.8
06:50 1020 30.12 850 25.1 5.9 42.6 54 -2.8 27
06:55 1021 30.15 850 25.1 6 42.7 54 -2.7 27.2
07:00 1020 30.12 850 25.1 6 42.9 54 -2.6 27.4
07:05 1021 30.15 850 25.1 6 42.8 54 -2.5 27.4
07:10 1021 30.15 850 25.1 6 42.7 55 -2.4 27.6
07:15 1021 30.15 850 25.1 5.9 42.7 55 -2.4 27.7
07:20 1021 30.15 850 25.1 6 42.7 55 -2.4 27.7
07:25 1020 30.12 850 25.1 6 42.8 55 -2.3 27.8
07:30 1020 30.12 850 25.1 6.1 42.9 55 -2.2 28
07:35 1020 30.12 850 25.1 6.1 43 56 -2.1 28.2
07:40 1020 30.12 850 25.1 6.1 42.9 56 -2.1 28.3
07:45 1020 30.12 850 25.1 6.1 43 56 -2 28.4
07:50 1020 30.12 850 25.1 6.1 42.9 56 -2.1 28.2
07:55 1020 30.12 850 25.1 6.1 43.1 56 -2.1 28.3
08:00 1020 30.12 850 25.1 6.1 43 56 -1.9 28.6
08:05 1020 30.12 850 25.1 6 42.9 56 -2 28.5
08:10 1020 30.12 849 25.07 6.1 43 56 -2 28.4
08:15 1020 30.12 850 25.1 6.1 43.1 56 -1.9 28.5
08:20 1020 30.12 850 25.1 6.1 43 56 -2 28.5
08:25 1020 30.12 850 25.1 6.2 43.1 56 -1.9 28.5
08:30 1021 30.15 850 25.1 6.2 43.2 56 -2 28.5
08:35 1021 30.15 850 25.1 6.3 43.3 55 -2.1 28.3
08:40 1021 30.15 850 25.1 6.4 43.4 55 -2.1 28.2
08:45 1021 30.15 850 25.1 6.4 43.6 55 -1.9 28.6
08:50 1021 30.15 850 25.1 6.5 43.6 55 -2 28.5
08:55 1021 30.15 850 25.1 6.5 43.8 55 -1.9 28.5
09:00 1021 30.15 850 25.1 6.6 43.9 55 -1.9 28.7
09:05 1021 30.15 850 25.1 6.6 44 55 -1.8 28.7
09:10 1021 30.15 850 25.1 6.7 44 54 -1.8 28.7
09:15 1021 30.15 850 25.1 6.8 44.3 54 -1.7 28.9
09:20 1021 30.15 850 25.1 7 44.7 53 -1.8 28.8
09:25 1021 30.15 850 25.1 7.1 44.9 52 -2 28.5
09:30 1021 30.15 850 25.1 7.3 45.1 52 -2 28.4
09:35 1021 30.15 850 25.1 7.5 45.5 51 -2 28.5
09:40 1021 30.15 850 25.1 7.7 45.9 51 -1.8 28.7
09:45 1021 30.15 850 25.1 7.9 46.1 50 -1.8 28.8
09:50 1021 30.15 850 25.1 8 46.4 51 -1.6 29.1
09:55 1021 30.15 850 25.1 7.9 46.2 51 -1.6 29.1
10:00 1021 30.15 850 25.1 7.9 46.3 51 -1.5 29.3
10:05 1021 30.15 850 25.1 8 46.4 51 -1.6 29.1
10:10 1021 30.15 850 25.1 8 46.3 50 -1.7 29
10:15 1021 30.15 850 25.1 8.1 46.5 50 -1.6 29.1
10:20 1021 30.15 850 25.1 8 46.4 51 -1.6 29.2
10:25 1021 30.15 850 25.1 8.2 46.7 50 -1.5 29.2
10:30 1021 30.15 850 25.1 8.4 47.1 49 -1.6 29.1
10:35 1021 30.15 850 25.1 8.7 47.7 48 -1.6 29.1
10:40 1021 30.15 850 25.1 8.8 47.9 47 -1.9 28.6
10:45 1021 30.15 850 25.1 9 48.2 46 -1.9 28.6
10:50 1021 30.15 850 25.1 9 48.3 47 -1.8 28.8
10:55 1021 30.15 850 25.1 9 48.2 46 -1.9 28.6
11:00 1021 30.15 850 25.1 9.1 48.3 44 -2.5 27.4
11:05 1021 30.15 850 25.1 9.7 49.4 43 -2.1 28.2
11:10 1021 30.15 850 25.1 9.9 49.9 44 -1.8 28.7
11:15 1021 30.15 850 25.1 9.7 49.4 44 -2 28.5
11:20 1021 30.15 850 25.1 9.6 49.2 44 -2.2 28
11:25 1021 30.15 850 25.1 9.8 49.7 46 -1.2 29.9
11:30 1021 30.15 850 25.1 10 50 49 -0.2 31.6
11:35 1021 30.15 850 25.1 9.5 49.1 51 -0.2 31.7
11:40 1021 30.15 850 25.1 9.4 48.9 50 -0.4 31.3
11:45 1021 30.15 850 25.1 9 48.2 51 -0.4 31.2
11:50 1021 30.15 850 25.1 9.1 48.3 50 -0.7 30.8
11:55 1021 30.15 850 25.1 9.5 49.1 49 -0.6 30.8
12:00 1021 30.15 850 25.1 10.1 50.1 47 -0.7 30.7
12:05 1021 30.15 850 25.1 10.6 51 45 -0.7 30.8
12:10 1021 30.15 850 25.1 10.6 51.1 46 -0.4 31.3
12:15 1021 30.15 850 25.1 10.6 51 45 -0.7 30.8
12:20 1021 30.15 850 25.1 11.1 52 44 -0.6 30.9
12:25 1021 30.15 850 25.1 11.9 53.3 40 -1.1 30
12:30 1021 30.15 850 25.1 12.7 54.8 38 -1.2 29.9
12:35 1021 30.15 850 25.1 13.1 55.5 38 -0.9 30.5
12:40 1021 30.15 850 25.1 13.2 55.8 38 -0.6 30.9
12:45 1021 30.15 850 25.1 13.2 55.7 41 0.2 32.4
12:50 1021 30.15 850 25.1 12.5 54.6 40 -0.5 31.1
12:55 1021 30.15 850 25.1 12.6 54.6 40 -0.7 30.8
13:00 1021 30.15 850 25.1 13.1 55.6 40 -0.2 31.7
13:05 1021 30.15 850 25.1 13.5 56.2 37 -0.9 30.4
13:10 1021 30.15 850 25.1 14 57.2 37 -0.5 31.1
13:15 1021 30.15 850 25.1 13.5 56.4 40 0.2 32.4
13:20 1020 30.12 850 25.1 13.6 56.4 37 -0.7 30.8
13:25 1020 30.12 850 25.1 14.4 57.9 35 -0.8 30.6
13:30 1020 30.12 850 25.1 15 58.9 37 0.6 33.1
13:35 1020 30.12 849 25.07 14.3 57.7 36 -0.6 31
13:40 1020 30.12 849 25.07 15.1 59.2 34 -0.4 31.2
13:45 1020 30.12 849 25.07 15 58.9 37 0.5 33
13:50 1020 30.12 849 25.07 14.4 58 38 0.4 32.6
13:55 1020 30.12 849 25.07 14.6 58.2 37 0 32.1
14:00 1020 30.12 849 25.07 15.3 59.5 34 -0.4 31.4
14:05 1020 30.12 849 25.07 15 58.9 37 0.6 33.1
14:10 1020 30.12 849 25.07 14.7 58.5 36 0.1 32.2
14:15 1020 30.12 849 25.07 15 58.9 35 -0.1 31.7
14:20 1020 30.12 849 25.07 14.7 58.5 36 -0.3 31.5
14:25 1020 30.12 849 25.07 15.6 60 34 -0.1 31.8
14:30 1020 30.12 849 25.07 16.1 60.9 34 0.2 32.3
14:35 1020 30.12 849 25.07 16.2 61.1 33 0.1 32.2
14:40 1020 30.12 849 25.07 15.5 59.9 33 -0.4 31.2
14:45 1020 30.12 849 25.07 15.7 60.3 34 0 32.1
14:50 1020 30.12 849 25.07 15.6 60 35 0.1 32.2
14:55 1020 30.12 849 25.07 16 60.8 33 -0.2 31.7
15:00 1020 30.12 849 25.07 16.1 60.9 33 -0.2 31.6
15:05 1020 30.12 849 25.07 16 60.7 34 0 32.1
15:10 1020 30.12 849 25.07 15.4 59.7 34 -0.3 31.4
15:15 1020 30.12 849 25.07 15.3 59.5 33 -0.6 30.9
15:20 1020 30.12 849 25.07 15.9 60.6 33 -0.2 31.6
15:25 1020 30.12 849 25.07 15.9 60.7 32 -0.5 31
15:30 1020 30.12 849 25.07 16.4 61.6 31 -0.4 31.3
15:35 1020 30.12 849 25.07 16.5 61.7 33 0.2 32.4
15:40 1020 30.12 849 25.07 16.2 61.2 33 -0.1 31.9
15:45 1020 30.12 849 25.07 15.7 60.2 33 -0.3 31.5
15:50 1020 30.12 849 25.07 15.3 59.5 36 0.2 32.4
15:55 1020 30.12 849 25.07 15.5 59.8 33 -0.8 30.6
16:00 1020 30.12 849 25.07 15.7 60.2 34 -0.1 31.8
16:05 1020 30.12 849 25.07 15.4 59.6 34 -0.3 31.4
16:10 1020 30.12 849 25.07 15.9 60.5 33 -0.1 31.8
16:15 1020 30.12 849 25.07 15.9 60.6 33 -0.1 31.9
16:20 1020 30.12 849 25.07 16.1 60.9 33 0.1 32.2
16:25 1020 30.12 849 25.07 16 60.8 34 0.1 32.2
16:30 1020 30.12 849 25.07 16 60.9 34 0.1 32.2
16:35 1020 30.12 849 25.07 15.8 60.4 35 0.5 32.9
16:40 1020 30.12 849 25.07 15.4 59.8 34 -0.1 31.8
16:45 1020 30.12 849 25.07 15.2 59.4 35 0.1 32.3
16:50 1020 30.12 849 25.07 14.7 58.5 37 0.2 32.3
16:55 1020 30.12 849 25.07 15.1 59.1 35 -0.1 31.8
17:00 1020 30.12 849 25.07 15.3 59.6 35 0 32
17:05 1020 30.12 849 25.07 15.3 59.5 35 -0 32
17:10 1020 30.12 849 25.07 15.3 59.5 35 0.1 32.2
17:15 1020 30.12 849 25.07 15.1 59.2 36 0.3 32.6
17:20 1020 30.12 849 25.07 14.7 58.4 37 0.2 32.4
17:25 1020 30.12 849 25.07 14.5 58.1 37 0.3 32.5
17:30 1020 30.12 849 25.07 14.5 58.1 37 0.3 32.5
17:35 1020 30.12 849 25.07 14.4 58 38 0.4 32.6
17:40 1020 30.12 849 25.07 14.2 57.6 39 0.4 32.8
17:45 1020 30.12 849 25.07 14.3 57.8 39 0.5 32.9
17:50 1020 30.12 849 25.07 14.2 57.5 39 0.6 33
17:55 1020 30.12 849 25.07 14.1 57.3 39 0.5 33
18:00 1020 30.12 849 25.07 14 57.1 41 0.8 33.5
18:05 1020 30.12 849 25.07 13.7 56.7 42 1.2 34.1
18:10 1020 30.12 849 25.07 13.4 56.2 43 1.1 34
18:15 1020 30.12 849 25.07 13.1 55.6 44 1.1 34
18:20 1020 30.12 849 25.07 12.7 54.8 43 0.6 33.1
18:25 1020 30.12 849 25.07 12.4 54.3 44 0.5 32.9
18:30 1020 30.12 849 25.07 12.3 54.2 43 0.2 32.3
18:35 1020 30.12 849 25.07 12.3 54.1 43 0.2 32.4
18:40 1020 30.12 849 25.07 12.2 54 43 -0 32
18:45 1020 30.12 849 25.07 12.2 53.9 42 -0.2 31.6
18:50 1020 30.12 849 25.07 12.1 53.9 42 -0.2 31.6
18:55 1020 30.12 849 25.07 12.1 53.8 42 -0.5 31.1
19:00 1020 30.12 849 25.07 12 53.6 42 -0.5 31.1
19:05 1020 30.12 849 25.07 11.9 53.4 42 -0.7 30.8
19:10 1020 30.12 849 25.07 11.8 53.2 42 -0.7 30.8
19:15 1020 30.12 849 25.07 11.7 53.1 42 -0.6 31
19:20 1020 30.12 849 25.07 11.6 52.8 43 -0.4 31.2
19:25 1020 30.12 849 25.07 11.5 52.7 43 -0.4 31.2
19:30 1020 30.12 849 25.07 11.5 52.6 43 -0.5 31.1
19:35 1020 30.12 849 25.07 11.5 52.6 43 -0.5 31.1
19:40 1020 30.12 849 25.07 11.4 52.6 43 -0.6 30.9
19:45 1020 30.12 849 25.07 11.4 52.6 43 -0.8 30.5
19:50 1020 30.12 849 25.07 11.5 52.8 42 -1 30.2
19:55 1020 30.12 849 25.07 11.6 52.9 41 -1 30.2
20:00 1020 30.12 849 25.07 11.6 52.9 41 -1.1 30.1
20:05 1020 30.12 849 25.07 11.6 52.8 41 -1.1 30
20:10 1020 30.12 849 25.07 11.6 52.8 41 -1.1 29.9
20:15 1020 30.12 849 25.07 11.6 52.8 41 -1.2 29.9
20:20 1020 30.12 849 25.07 11.5 52.6 42 -1.1 30.1
20:25 1020 30.12 849 25.07 11.3 52.4 43 -0.9 30.4
20:30 1020 30.12 849 25.07 11.2 52.2 43 -0.8 30.6
20:35 1020 30.12 850 25.1 11.1 52 44 -0.7 30.8
20:40 1020 30.12 850 25.1 11 51.9 44 -0.7 30.7
20:45 1020 30.12 850 25.1 11 51.8 44 -0.7 30.7
20:50 1020 30.12 850 25.1 11 51.8 44 -0.9 30.4
20:55 1020 30.12 850 25.1 10.9 51.7 44 -0.8 30.6
21:00 1020 30.12 850 25.1 10.8 51.5 44 -1 30.3
21:05 1020 30.12 849 25.07 10.8 51.4 45 -0.8 30.6
21:10 1020 30.12 849 25.07 10.7 51.2 45 -0.7 30.7
21:15 1020 30.12 849 25.07 10.6 51 45 -0.8 30.5
21:20 1020 30.12 849 25.07 10.5 51 45 -1 30.3
21:25 1020 30.12 849 25.07 10.7 51.2 44 -1.1 30
21:30 1020 30.12 849 25.07 10.7 51.2 44 -1.1 30
21:35 1020 30.12 849 25.07 10.8 51.4 44 -1 30.2
21:40 1020 30.12 849 25.07 10.8 51.5 43 -1.1 30
21:45 1020 30.12 849 25.07 10.9 51.6 43 -1.3 29.7
21:50 1020 30.12 849 25.07 10.9 51.7 43 -1.2 29.9
21:55 1020 30.12 849 25.07 10.9 51.7 43 -1.2 29.8
22:00 1020 30.12 849 25.07 11 51.8 42 -1.3 29.6
22:05 1020 30.12 849 25.07 10.9 51.7 42 -1.3 29.6
22:10 1020 30.12 849 25.07 11 51.8 42 -1.4 29.5
22:15 1020 30.12 849 25.07 11 51.8 42 -1.3 29.7
22:20 1020 30.12 849 25.07 11 51.7 42 -1.4 29.4
22:25 1020 30.12 849 25.07 10.8 51.5 43 -1.3 29.6
22:30 1020 30.12 849 25.07 10.8 51.4 43 -1.2 29.9
22:35 1020 30.12 849 25.07 10.7 51.2 44 -1.1 30
22:40 1020 30.12 849 25.07 10.6 51 44 -1.1 30.1
22:45 1020 30.12 849 25.07 10.4 50.7 45 -0.9 30.4
22:50 1020 30.12 849 25.07 10.3 50.6 46 -0.8 30.5
22:55 1020 30.12 849 25.07 10.5 50.8 46 -0.7 30.8
23:00 1020 30.12 849 25.07 10.5 50.9 46 -0.6 30.9
23:05 1020 30.12 849 25.07 10.5 50.8 46 -0.7 30.8
23:10 1020 30.12 849 25.07 10.4 50.7 46 -0.6 30.9
23:15 1020 30.12 850 25.1 10.4 50.6 47 -0.5 31.1
23:20 1020 30.12 850 25.1 10.2 50.4 47 -0.7 30.8
23:25 1020 30.12 850 25.1 10.3 50.5 46 -0.8 30.5
23:30 1020 30.12 850 25.1 10.2 50.3 46 -0.8 30.5
23:35 1020 30.12 850 25.1 10.2 50.3 47 -0.7 30.7
23:40 1020 30.12 850 25.1 10.1 50.2 47 -0.8 30.6
23:45 1020 30.12 850 25.1 10 50.1 47 -0.8 30.6
23:50 1020 30.12 850 25.1 9.9 49.8 48 -0.6 30.8
23:55 1020 30.12 850 25.1 9.9 49.7 48 -0.7 30.7
24:00 1020 30.12 850 25.1 9.8 49.6 48 -0.6 30.9